createdAt,value
2018-12-15T00:00:15.900Z,30.37
2018-12-15T00:03:19.241Z,30.13
2018-12-15T00:06:24.439Z,28.30
2018-12-15T00:09:28.598Z,25.57
2018-12-15T00:12:31.711Z,26.97
2018-12-15T00:15:34.843Z,25.33
2018-12-15T00:18:38.051Z,23.97
2018-12-15T00:21:41.247Z,24.37
2018-12-15T00:24:44.353Z,22.30
2018-12-15T00:27:47.543Z,22.70
2018-12-15T00:30:50.755Z,21.43
2018-12-15T00:33:53.932Z,20.00
2018-12-15T00:36:57.064Z,20.03
2018-12-15T00:40:00.217Z,18.73
2018-12-15T00:43:03.383Z,18.83
2018-12-15T00:46:06.537Z,17.60
2018-12-15T00:49:09.651Z,17.83
2018-12-15T00:52:12.839Z,16.63
2018-12-15T00:55:15.978Z,16.03
2018-12-15T00:58:19.131Z,15.80
2018-12-15T01:01:22.282Z,15.97
2018-12-15T01:04:25.448Z,14.83
2018-12-15T01:07:28.703Z,15.43
2018-12-15T01:10:31.791Z,14.17
2018-12-15T01:13:35.169Z,13.97
2018-12-15T01:16:38.371Z,12.93
2018-12-15T01:19:41.628Z,12.40
2018-12-15T01:22:44.823Z,13.20
2018-12-15T01:25:47.975Z,12.90
2018-12-15T01:28:51.098Z,11.97
2018-12-15T01:31:54.241Z,12.53
2018-12-15T01:42:32.845Z,9.87
2018-12-15T01:45:35.964Z,9.40
2018-12-15T01:48:39.128Z,9.87
2018-12-15T01:51:42.358Z,9.60
2018-12-15T01:54:45.536Z,9.17
2018-12-15T01:57:48.693Z,8.27
2018-12-15T02:00:51.918Z,8.93
2018-12-15T02:03:55.079Z,8.40
2018-12-15T02:06:58.200Z,8.10
2018-12-15T02:10:01.276Z,8.23
2018-12-15T02:13:04.438Z,7.93
2018-12-15T02:16:07.545Z,7.77
2018-12-15T02:19:10.798Z,7.83
2018-12-15T02:22:13.912Z,7.67
2018-12-15T02:25:17.048Z,6.90
2018-12-15T02:28:20.162Z,6.77
2018-12-15T02:31:24.535Z,7.50
2018-12-15T02:34:27.737Z,6.60
2018-12-15T02:37:35.216Z,6.40
2018-12-15T02:40:38.328Z,6.20
2018-12-15T02:43:41.515Z,6.97
2018-12-15T02:46:44.676Z,5.90
2018-12-15T02:49:47.891Z,6.30
2018-12-15T02:52:51.059Z,5.80
2018-12-15T02:55:54.298Z,6.17
2018-12-15T02:58:58.547Z,6.03
2018-12-15T03:02:01.670Z,5.70
2018-12-15T03:05:05.157Z,5.83
2018-12-15T03:08:08.241Z,5.73
2018-12-15T03:11:11.434Z,5.53
2018-12-15T03:14:14.655Z,5.40
2018-12-15T03:17:18.855Z,5.73
2018-12-15T03:20:22.042Z,5.00
2018-12-15T03:23:25.196Z,4.87
2018-12-15T03:26:28.320Z,5.33
2018-12-15T03:29:31.439Z,5.27
2018-12-15T03:32:34.584Z,4.77
2018-12-15T03:35:37.695Z,4.97
2018-12-15T03:38:40.797Z,4.50
2018-12-15T03:41:43.900Z,4.77
2018-12-15T03:44:47.058Z,4.83
2018-12-15T03:47:56.257Z,4.63
2018-12-15T03:50:55.376Z,4.77
2018-12-15T03:53:58.571Z,4.37
2018-12-15T03:57:01.677Z,4.43
2018-12-15T04:00:05.023Z,4.03
2018-12-15T04:03:09.231Z,4.53
2018-12-15T04:06:12.425Z,4.53
2018-12-15T04:09:15.563Z,4.77
2018-12-15T04:12:18.684Z,4.20
2018-12-15T04:15:21.896Z,4.20
2018-12-15T04:18:25.123Z,4.40
2018-12-15T04:21:28.258Z,4.33
2018-12-15T04:24:31.375Z,3.90
2018-12-15T04:27:34.529Z,4.03
2018-12-15T04:30:37.671Z,4.00
2018-12-15T04:33:40.855Z,3.93
2018-12-15T04:36:44.096Z,3.70
2018-12-15T04:39:47.217Z,4.20
2018-12-15T04:42:50.355Z,3.90
2018-12-15T04:45:53.498Z,3.80
2018-12-15T04:48:56.763Z,3.90
2018-12-15T04:51:59.871Z,3.73
2018-12-15T04:55:03.126Z,4.13
2018-12-15T04:58:06.447Z,3.60
2018-12-15T05:01:09.560Z,3.50
2018-12-15T05:04:12.675Z,3.80
2018-12-15T05:07:15.828Z,4.00
2018-12-15T05:10:19.039Z,3.80
2018-12-15T05:13:22.187Z,3.87
2018-12-15T05:16:25.415Z,3.80
2018-12-15T05:19:28.577Z,3.90
2018-12-15T05:22:31.808Z,4.20
2018-12-15T05:25:35.021Z,3.70
2018-12-15T05:28:38.168Z,3.80
2018-12-15T05:31:41.438Z,3.90
2018-12-15T05:34:44.619Z,4.10
2018-12-15T05:37:47.860Z,3.77
2018-12-15T05:40:51.026Z,3.83
2018-12-15T05:43:54.178Z,3.90
2018-12-15T05:46:57.517Z,3.83
2018-12-15T05:50:00.664Z,3.57
2018-12-15T05:53:03.943Z,3.70
2018-12-15T05:56:07.120Z,149.80
2018-12-15T05:59:12.474Z,81.73
2018-12-15T06:02:17.176Z,76.60
2018-12-15T06:05:21.675Z,82.00
2018-12-15T06:08:24.899Z,69.13
2018-12-15T06:11:28.089Z,63.90
2018-12-15T06:14:32.344Z,57.97
2018-12-15T06:17:36.571Z,56.97
2018-12-15T06:20:39.721Z,52.30
2018-12-15T06:23:42.859Z,47.77
2018-12-15T06:26:46.062Z,46.23
2018-12-15T06:29:49.216Z,45.73
2018-12-15T06:32:52.356Z,42.80
2018-12-15T06:35:55.571Z,39.37
2018-12-15T06:38:58.718Z,37.30
2018-12-15T06:42:01.840Z,36.43
2018-12-15T06:45:05.466Z,34.07
2018-12-15T06:48:08.582Z,34.20
2018-12-15T06:51:11.751Z,31.73
2018-12-15T06:54:15.131Z,30.77
2018-12-15T06:57:18.388Z,28.90
2018-12-15T07:00:21.621Z,28.63
2018-12-15T07:03:25.426Z,28.93
2018-12-15T07:06:28.499Z,25.83
2018-12-15T07:09:31.699Z,24.73
2018-12-15T07:12:34.895Z,23.30
2018-12-15T07:15:38.089Z,23.27
2018-12-15T07:18:44.729Z,22.33
2018-12-15T07:21:46.432Z,20.53
2018-12-15T07:24:49.545Z,20.07
2018-12-15T07:27:52.862Z,19.53
2018-12-15T07:30:56.006Z,19.97
2018-12-15T07:33:59.226Z,18.80
2018-12-15T07:37:04.464Z,17.97
2018-12-15T07:40:08.266Z,17.50
2018-12-15T07:43:11.405Z,16.57
2018-12-15T07:46:15.578Z,16.23
2018-12-15T07:49:18.708Z,16.13
2018-12-15T07:52:21.835Z,15.43
2018-12-15T07:55:25.192Z,15.30
2018-12-15T07:58:28.453Z,14.80
2018-12-15T08:01:31.724Z,13.57
2018-12-15T08:04:34.897Z,13.43
2018-12-15T08:07:39.154Z,12.97
2018-12-15T08:10:47.688Z,13.07
2018-12-15T08:13:56.897Z,12.63
2018-12-15T08:17:00.319Z,12.17
2018-12-15T08:20:04.215Z,11.73
2018-12-15T08:23:07.354Z,11.87
2018-12-15T08:26:10.574Z,11.20
2018-12-15T08:29:13.726Z,11.00
2018-12-15T08:32:16.939Z,10.73
2018-12-15T08:35:20.253Z,10.43
2018-12-15T08:38:23.403Z,9.97
2018-12-15T08:41:26.742Z,9.43
2018-12-15T08:44:29.875Z,9.30
2018-12-15T08:47:33.292Z,8.47
2018-12-15T08:50:36.648Z,18.77
2018-12-15T08:53:39.959Z,51.30
2018-12-15T08:56:43.288Z,46.23
2018-12-15T08:59:46.628Z,40.90
2018-12-15T09:02:50.908Z,31.13
2018-12-15T09:05:56.234Z,24.40
2018-12-15T09:08:59.411Z,21.17
2018-12-15T09:12:02.598Z,17.87
2018-12-15T09:15:06.330Z,15.17
2018-12-15T09:18:09.851Z,14.03
2018-12-15T09:21:13.191Z,13.80
2018-12-15T09:31:55.301Z,19.70
2018-12-15T09:34:58.506Z,17.03
2018-12-15T09:38:05.078Z,15.40
2018-12-15T09:41:08.416Z,14.07
2018-12-15T09:44:11.728Z,14.13
2018-12-15T09:47:16.106Z,13.03
2018-12-15T09:50:19.414Z,12.67
2018-12-15T09:53:22.793Z,11.70
2018-12-15T09:56:27.023Z,11.43
2018-12-15T09:59:31.281Z,22.70
2018-12-15T10:02:35.016Z,19.70
2018-12-15T10:05:38.560Z,15.63
2018-12-15T10:08:41.851Z,15.67
2018-12-15T10:11:45.142Z,11.50
2018-12-15T10:14:48.478Z,11.13
2018-12-15T10:17:52.821Z,10.33
2018-12-15T10:20:58.166Z,9.70
2018-12-15T10:24:01.359Z,8.90
2018-12-15T10:27:04.755Z,10.18
2018-12-15T10:30:13.483Z,7.50
2018-12-15T10:33:16.788Z,7.30
2018-12-15T10:36:20.115Z,7.43
2018-12-15T10:39:23.600Z,6.93
2018-12-15T10:42:26.775Z,7.00
2018-12-15T10:45:29.950Z,6.40
2018-12-15T10:48:33.179Z,6.80
2018-12-15T10:51:37.751Z,6.40
2018-12-15T10:54:40.961Z,6.53
2018-12-15T10:57:44.258Z,6.40
2018-12-15T11:00:53.001Z,6.33
2018-12-15T11:04:00.762Z,6.37
2018-12-15T11:07:01.658Z,6.20
2018-12-15T11:10:05.118Z,5.90
2018-12-15T11:13:08.547Z,5.93
2018-12-15T11:16:11.714Z,5.40
2018-12-15T11:19:15.571Z,5.47
2018-12-15T11:22:20.423Z,5.57
2018-12-15T11:25:23.675Z,5.90
2018-12-15T11:28:27.013Z,5.40
2018-12-15T11:31:31.216Z,6.00
2018-12-15T11:34:34.411Z,5.47
2018-12-15T11:37:37.692Z,5.40
2018-12-15T11:40:41.137Z,5.57
2018-12-15T11:43:44.318Z,5.50
2018-12-15T11:46:48.654Z,5.40
2018-12-15T11:49:52.187Z,5.80
2018-12-15T11:52:57.091Z,5.07
2018-12-15T11:56:00.378Z,5.40
2018-12-15T11:59:03.982Z,5.60
2018-12-15T12:02:07.385Z,5.87
2018-12-15T12:05:10.734Z,4.90
2018-12-15T12:08:13.945Z,5.33
2018-12-15T12:11:17.125Z,5.50
2018-12-15T12:14:20.464Z,5.00
2018-12-15T12:17:23.712Z,5.47
2018-12-15T12:20:27.072Z,5.73
2018-12-15T12:23:30.284Z,5.80
2018-12-15T12:26:33.528Z,5.63
2018-12-15T12:29:36.652Z,5.80
2018-12-15T12:32:39.894Z,6.07
2018-12-15T12:35:44.233Z,5.60
2018-12-15T12:38:47.536Z,5.37
2018-12-15T12:41:51.928Z,6.17
2018-12-15T12:44:55.101Z,5.63
2018-12-15T12:47:58.271Z,5.47
2018-12-15T12:51:01.477Z,5.47
2018-12-15T12:54:04.716Z,5.10
2018-12-15T12:57:07.948Z,5.90
2018-12-15T13:00:11.455Z,4.87
2018-12-15T13:03:14.797Z,4.73
2018-12-15T13:06:18.129Z,5.00
2018-12-15T13:09:21.562Z,4.77
2018-12-15T13:12:24.736Z,4.83
2018-12-15T13:15:27.859Z,4.97
2018-12-15T13:18:31.120Z,4.50
2018-12-15T13:21:34.438Z,4.50
2018-12-15T13:24:37.630Z,4.50
2018-12-15T13:27:40.840Z,5.07
2018-12-15T13:30:44.686Z,4.50
2018-12-15T13:33:47.851Z,4.33
2018-12-15T13:36:51.088Z,4.50
2018-12-15T13:39:54.941Z,4.13
2018-12-15T13:42:58.383Z,4.43
2018-12-15T13:46:01.894Z,4.33
2018-12-15T13:49:06.668Z,4.17
2018-12-15T13:52:09.823Z,3.90
2018-12-15T13:55:13.280Z,3.97
2018-12-15T13:58:16.623Z,4.10
2018-12-15T14:01:19.932Z,4.00
2018-12-15T14:04:23.426Z,4.07
2018-12-15T14:07:26.662Z,4.20
2018-12-15T14:10:31.926Z,3.70
2018-12-15T14:13:35.359Z,3.47
2018-12-15T14:16:38.937Z,3.53
2018-12-15T14:19:42.167Z,3.70
2018-12-15T14:22:45.735Z,3.30
2018-12-15T14:25:48.974Z,5.13
2018-12-15T14:28:52.218Z,17.10
2018-12-15T14:31:55.619Z,29.90
2018-12-15T14:34:58.952Z,19.13
2018-12-15T14:38:02.207Z,16.03
2018-12-15T14:41:05.469Z,11.70
2018-12-15T14:44:08.622Z,9.00
2018-12-15T14:47:30.549Z,11.97
2018-12-15T14:50:33.795Z,9.20
2018-12-15T14:53:37.112Z,8.07
2018-12-15T14:56:40.399Z,7.10
2018-12-15T14:59:43.516Z,7.67
2018-12-15T15:02:46.712Z,7.20
2018-12-15T15:05:49.869Z,6.63
2018-12-15T15:08:53.160Z,6.73
2018-12-15T15:11:56.655Z,7.00
2018-12-15T15:15:00.563Z,7.53
2018-12-15T15:18:03.738Z,6.63
2018-12-15T15:21:06.941Z,7.37
2018-12-15T15:24:10.199Z,7.43
2018-12-15T15:27:13.663Z,7.67
2018-12-15T15:30:16.851Z,7.30
2018-12-15T15:33:20.073Z,7.23
2018-12-15T15:36:23.402Z,7.13
2018-12-15T15:39:26.693Z,7.03
2018-12-15T15:42:29.834Z,7.30
2018-12-15T15:45:33.084Z,7.60
2018-12-15T15:48:36.372Z,7.43
2018-12-15T15:51:39.648Z,7.37
2018-12-15T15:54:42.822Z,6.97
2018-12-15T15:57:46.968Z,7.13
2018-12-15T16:00:51.221Z,7.27
2018-12-15T16:03:54.377Z,7.20
2018-12-15T16:06:58.629Z,7.97
2018-12-15T16:10:01.920Z,8.00
2018-12-15T16:13:05.312Z,8.30
2018-12-15T16:16:39.507Z,8.77
2018-12-15T16:19:42.783Z,8.07
2018-12-15T16:22:46.067Z,7.97
2018-12-15T16:25:49.448Z,8.77
2018-12-15T16:28:52.658Z,8.60
2018-12-15T16:31:55.818Z,8.03
2018-12-15T16:34:58.974Z,7.90
2018-12-15T16:38:02.161Z,8.20
2018-12-15T16:41:05.435Z,7.73
2018-12-15T16:44:08.696Z,8.37
2018-12-15T16:47:11.977Z,8.80
2018-12-15T16:50:15.254Z,8.40
2018-12-15T16:53:18.495Z,8.40
2018-12-15T16:56:21.699Z,8.50
2018-12-15T16:59:24.941Z,8.87
2018-12-15T17:02:28.102Z,9.00
2018-12-15T17:05:31.465Z,8.00
2018-12-15T17:08:34.741Z,27.17
2018-12-15T17:11:37.954Z,38.27
2018-12-15T17:14:41.220Z,32.60
2018-12-15T17:17:44.398Z,32.10
2018-12-15T17:20:48.259Z,31.73
2018-12-15T17:23:51.442Z,28.23
2018-12-15T17:26:54.673Z,27.40
2018-12-15T17:29:57.887Z,25.47
2018-12-15T17:33:02.102Z,24.30
2018-12-15T17:36:05.384Z,24.33
2018-12-15T17:39:08.709Z,22.93
2018-12-15T17:42:11.832Z,21.60
2018-12-15T17:45:15.041Z,21.03
2018-12-15T17:48:18.280Z,18.57
2018-12-15T17:51:22.751Z,19.03
2018-12-15T17:54:27.384Z,18.23
2018-12-15T17:57:32.090Z,17.97
2018-12-15T18:00:35.826Z,16.80
2018-12-15T18:03:39.412Z,15.80
2018-12-15T18:06:42.615Z,15.53
2018-12-15T18:09:45.770Z,14.33
2018-12-15T18:12:48.991Z,14.77
2018-12-15T18:15:52.141Z,13.63
2018-12-15T18:18:55.803Z,13.27
2018-12-15T18:21:59.038Z,12.03
2018-12-15T18:25:02.229Z,11.87
2018-12-15T18:28:05.342Z,12.57
2018-12-15T18:31:08.609Z,11.77
2018-12-15T18:34:11.747Z,10.83
2018-12-15T18:37:14.975Z,10.73
2018-12-15T18:40:18.181Z,10.70
2018-12-15T18:43:22.271Z,10.23
2018-12-15T18:46:25.414Z,10.40
2018-12-15T18:49:28.627Z,9.20
2018-12-15T18:52:31.860Z,9.27
2018-12-15T18:55:35.207Z,8.90
2018-12-15T18:58:38.506Z,8.07
2018-12-15T19:01:41.806Z,8.40
2018-12-15T19:04:44.935Z,8.47
2018-12-15T19:07:49.153Z,8.33
2018-12-15T19:10:52.309Z,7.67
2018-12-15T19:13:55.500Z,7.10
2018-12-15T19:16:59.776Z,6.80
2018-12-15T19:20:03.088Z,6.37
2018-12-15T19:23:06.328Z,6.80
2018-12-15T19:26:09.593Z,6.33
2018-12-15T19:29:12.766Z,6.73
2018-12-15T19:32:16.873Z,5.83
2018-12-15T19:35:21.309Z,5.97
2018-12-15T19:38:29.943Z,6.07
2018-12-15T19:41:33.147Z,5.97
2018-12-15T19:44:36.334Z,5.80
2018-12-15T19:47:39.653Z,5.43
2018-12-15T19:50:42.900Z,5.27
2018-12-15T19:53:47.612Z,5.50
2018-12-15T19:56:51.072Z,5.50
2018-12-15T19:59:54.542Z,5.50
2018-12-15T20:02:57.931Z,5.17
2018-12-15T20:06:01.298Z,5.00
2018-12-15T20:09:07.810Z,4.87
2018-12-15T20:12:11.037Z,4.77
2018-12-15T20:15:14.177Z,4.80
2018-12-15T20:18:17.402Z,4.50
2018-12-15T20:21:21.617Z,4.30
2018-12-15T20:24:24.811Z,4.07
2018-12-15T20:27:28.200Z,4.23
2018-12-15T20:30:31.709Z,4.40
2018-12-15T20:33:35.550Z,4.03
2018-12-15T20:36:38.896Z,4.03
2018-12-15T20:39:42.314Z,4.33
2018-12-15T20:42:45.532Z,3.97
2018-12-15T20:45:48.802Z,4.20
2018-12-15T20:48:52.108Z,4.33
2018-12-15T20:51:55.621Z,4.00
2018-12-15T20:54:59.002Z,3.97
2018-12-15T20:58:02.170Z,3.73
2018-12-15T21:01:05.666Z,3.87
2018-12-15T21:04:08.904Z,3.73
2018-12-15T21:07:12.816Z,3.90
2018-12-15T21:10:16.043Z,3.10
2018-12-15T21:13:19.604Z,3.63
2018-12-15T21:16:22.986Z,3.20
2018-12-15T21:19:26.258Z,3.10
2018-12-15T21:22:29.738Z,3.43
2018-12-15T21:25:32.883Z,3.50
2018-12-15T21:28:36.017Z,2.90
2018-12-15T21:31:39.167Z,3.40
2018-12-15T21:34:42.314Z,3.03
2018-12-15T21:37:45.494Z,3.07
2018-12-15T21:40:48.759Z,3.20
2018-12-15T21:43:51.947Z,3.13
2018-12-15T21:46:55.155Z,3.30
2018-12-15T21:49:58.379Z,3.33
2018-12-15T21:53:01.606Z,3.27
2018-12-15T21:56:04.831Z,3.07
2018-12-15T21:59:08.095Z,3.17
2018-12-15T22:02:11.276Z,3.30
2018-12-15T22:05:14.470Z,3.20
2018-12-15T22:08:17.893Z,3.30
2018-12-15T22:11:21.070Z,3.20
2018-12-15T22:14:24.253Z,3.70
2018-12-15T22:17:27.394Z,3.20
2018-12-15T22:20:30.701Z,3.37
2018-12-15T22:23:33.821Z,3.10
2018-12-15T22:26:36.944Z,3.10
2018-12-15T22:29:40.074Z,3.23
2018-12-15T22:32:43.372Z,3.17
2018-12-15T22:35:46.596Z,3.37
2018-12-15T22:38:49.965Z,2.93
2018-12-15T22:41:53.180Z,3.40
2018-12-15T22:44:56.471Z,3.17
2018-12-15T22:48:03.481Z,3.40
2018-12-15T22:51:07.956Z,3.50
2018-12-15T22:54:11.135Z,3.40
2018-12-15T22:57:14.570Z,3.47
2018-12-15T23:00:18.696Z,3.50
2018-12-15T23:03:21.884Z,3.30
2018-12-15T23:06:25.042Z,3.57
2018-12-15T23:09:28.970Z,4.17
2018-12-15T23:12:33.245Z,3.70
2018-12-15T23:15:36.637Z,3.20
2018-12-15T23:18:40.160Z,3.27
2018-12-15T23:21:43.943Z,3.70
2018-12-15T23:24:47.257Z,3.20
2018-12-15T23:27:51.583Z,56.27
2018-12-15T23:30:54.765Z,107.67
2018-12-15T23:33:59.323Z,131.83
2018-12-15T23:37:02.736Z,95.03
2018-12-15T23:40:06.113Z,76.40
2018-12-15T23:43:09.316Z,62.50
2018-12-15T23:46:12.620Z,68.97
2018-12-15T23:49:15.901Z,57.43
2018-12-15T23:52:23.347Z,28.80
2018-12-15T23:55:24.191Z,37.70
2018-12-15T23:58:27.337Z,51.13
